sensor_id;sensor_type;location;lat;lon;timestamp;P1;durP1;ratioP1;P2;durP2;ratioP2
23300;SDS011;11819;51.394;12.340;2023-05-01T00:00:40;16.38;;;10.32;;
23300;SDS011;11819;51.394;12.340;2023-05-01T00:03:05;14.23;;;9.75;;
23300;SDS011;11819;51.394;12.340;2023-05-01T00:05:31;13.63;;;9.20;;
23300;SDS011;11819;51.394;12.340;2023-05-01T00:07:57;15.48;;;9.23;;
23300;SDS011;11819;51.394;12.340;2023-05-01T00:10:22;13.93;;;9.07;;
23300;SDS011;11819;51.394;12.340;2023-05-01T00:12:48;13.10;;;9.02;;
23300;SDS011;11819;51.394;12.340;2023-05-01T00:15:14;14.10;;;9.25;;
23300;SDS011;11819;51.394;12.340;2023-05-01T00:17:39;13.52;;;9.20;;
23300;SDS011;11819;51.394;12.340;2023-05-01T00:20:05;15.15;;;9.38;;
23300;SDS011;11819;51.394;12.340;2023-05-01T00:22:32;12.95;;;8.90;;
23300;SDS011;11819;51.394;12.340;2023-05-01T00:24:58;13.73;;;9.35;;
23300;SDS011;11819;51.394;12.340;2023-05-01T00:27:23;14.10;;;9.00;;
23300;SDS011;11819;51.394;12.340;2023-05-01T00:29:49;12.48;;;8.35;;
23300;SDS011;11819;51.394;12.340;2023-05-01T00:32:15;13.05;;;9.02;;
23300;SDS011;11819;51.394;12.340;2023-05-01T00:34:41;15.13;;;9.10;;
23300;SDS011;11819;51.394;12.340;2023-05-01T00:37:07;13.38;;;9.15;;
23300;SDS011;11819;51.394;12.340;2023-05-01T00:39:32;11.80;;;7.95;;
23300;SDS011;11819;51.394;12.340;2023-05-01T00:41:58;13.50;;;9.13;;
23300;SDS011;11819;51.394;12.340;2023-05-01T00:44:23;12.43;;;8.50;;
23300;SDS011;11819;51.394;12.340;2023-05-01T00:46:49;12.75;;;8.82;;
23300;SDS011;11819;51.394;12.340;2023-05-01T00:49:15;11.10;;;8.07;;
23300;SDS011;11819;51.394;12.340;2023-05-01T00:51:41;13.30;;;8.65;;
23300;SDS011;11819;51.394;12.340;2023-05-01T00:54:09;12.55;;;9.05;;
23300;SDS011;11819;51.394;12.340;2023-05-01T00:56:35;14.25;;;8.75;;
23300;SDS011;11819;51.394;12.340;2023-05-01T00:59:01;14.65;;;9.25;;
23300;SDS011;11819;51.394;12.340;2023-05-01T01:01:27;15.20;;;9.57;;
23300;SDS011;11819;51.394;12.340;2023-05-01T01:03:53;15.65;;;8.90;;
23300;SDS011;11819;51.394;12.340;2023-05-01T01:06:21;13.93;;;9.77;;
23300;SDS011;11819;51.394;12.340;2023-05-01T01:09:01;12.18;;;8.48;;
23300;SDS011;11819;51.394;12.340;2023-05-01T01:12:02;14.02;;;9.50;;
23300;SDS011;11819;51.394;12.340;2023-05-01T01:14:32;13.07;;;9.10;;
23300;SDS011;11819;51.394;12.340;2023-05-01T01:17:11;12.13;;;8.73;;
23300;SDS011;11819;51.394;12.340;2023-05-01T01:22:30;14.13;;;9.95;;
23300;SDS011;11819;51.394;12.340;2023-05-01T01:25:18;14.70;;;9.98;;
23300;SDS011;11819;51.394;12.340;2023-05-01T01:31:11;15.47;;;9.80;;
23300;SDS011;11819;51.394;12.340;2023-05-01T01:33:48;16.65;;;9.60;;
23300;SDS011;11819;51.394;12.340;2023-05-01T01:36:21;13.98;;;9.85;;
23300;SDS011;11819;51.394;12.340;2023-05-01T01:39:09;18.05;;;10.45;;
23300;SDS011;11819;51.394;12.340;2023-05-01T01:41:49;14.82;;;9.60;;
23300;SDS011;11819;51.394;12.340;2023-05-01T01:47:01;16.20;;;9.65;;
23300;SDS011;11819;51.394;12.340;2023-05-01T01:49:33;15.65;;;9.77;;
23300;SDS011;11819;51.394;12.340;2023-05-01T01:52:02;14.45;;;9.00;;
23300;SDS011;11819;51.394;12.340;2023-05-01T01:54:32;16.20;;;10.00;;
23300;SDS011;11819;51.394;12.340;2023-05-01T01:57:01;16.20;;;10.13;;
23300;SDS011;11819;51.394;12.340;2023-05-01T01:59:32;15.10;;;9.80;;
23300;SDS011;11819;51.394;12.340;2023-05-01T02:02:01;15.23;;;10.02;;
23300;SDS011;11819;51.394;12.340;2023-05-01T02:04:28;16.40;;;10.30;;
23300;SDS011;11819;51.394;12.340;2023-05-01T02:06:55;14.10;;;10.15;;
23300;SDS011;11819;51.394;12.340;2023-05-01T02:09:23;17.02;;;10.57;;
23300;SDS011;11819;51.394;12.340;2023-05-01T02:11:52;14.65;;;9.85;;
23300;SDS011;11819;51.394;12.340;2023-05-01T02:14:20;16.03;;;9.17;;
23300;SDS011;11819;51.394;12.340;2023-05-01T02:16:49;14.43;;;10.17;;
23300;SDS011;11819;51.394;12.340;2023-05-01T02:19:16;17.52;;;9.70;;
23300;SDS011;11819;51.394;12.340;2023-05-01T02:21:44;14.15;;;9.63;;
23300;SDS011;11819;51.394;12.340;2023-05-01T02:24:11;13.48;;;10.38;;
23300;SDS011;11819;51.394;12.340;2023-05-01T02:26:42;13.82;;;9.50;;
23300;SDS011;11819;51.394;12.340;2023-05-01T02:29:13;16.07;;;10.00;;
23300;SDS011;11819;51.394;12.340;2023-05-01T02:31:39;16.57;;;10.30;;
23300;SDS011;11819;51.394;12.340;2023-05-01T02:34:04;14.20;;;9.63;;
23300;SDS011;11819;51.394;12.340;2023-05-01T02:36:30;16.10;;;9.55;;
23300;SDS011;11819;51.394;12.340;2023-05-01T02:38:58;15.63;;;9.57;;
23300;SDS011;11819;51.394;12.340;2023-05-01T02:41:24;14.50;;;9.87;;
23300;SDS011;11819;51.394;12.340;2023-05-01T02:43:54;16.48;;;9.82;;
23300;SDS011;11819;51.394;12.340;2023-05-01T02:46:25;14.15;;;9.23;;
23300;SDS011;11819;51.394;12.340;2023-05-01T02:48:52;16.50;;;10.33;;
23300;SDS011;11819;51.394;12.340;2023-05-01T02:51:20;13.57;;;9.73;;
23300;SDS011;11819;51.394;12.340;2023-05-01T02:53:47;15.75;;;9.70;;
23300;SDS011;11819;51.394;12.340;2023-05-01T02:56:18;15.83;;;9.93;;
23300;SDS011;11819;51.394;12.340;2023-05-01T02:58:44;13.50;;;9.73;;
23300;SDS011;11819;51.394;12.340;2023-05-01T03:01:12;17.00;;;10.18;;
23300;SDS011;11819;51.394;12.340;2023-05-01T03:03:37;14.13;;;9.10;;
23300;SDS011;11819;51.394;12.340;2023-05-01T03:06:04;15.53;;;9.73;;
23300;SDS011;11819;51.394;12.340;2023-05-01T03:08:30;14.40;;;9.55;;
23300;SDS011;11819;51.394;12.340;2023-05-01T03:10:56;16.27;;;9.93;;
23300;SDS011;11819;51.394;12.340;2023-05-01T03:13:22;15.17;;;9.83;;
23300;SDS011;11819;51.394;12.340;2023-05-01T03:15:47;13.17;;;8.97;;
23300;SDS011;11819;51.394;12.340;2023-05-01T03:18:13;14.00;;;8.87;;
23300;SDS011;11819;51.394;12.340;2023-05-01T03:20:39;17.37;;;10.23;;
23300;SDS011;11819;51.394;12.340;2023-05-01T03:23:05;13.03;;;8.97;;
23300;SDS011;11819;51.394;12.340;2023-05-01T03:25:31;14.53;;;9.90;;
23300;SDS011;11819;51.394;12.340;2023-05-01T03:27:58;16.43;;;9.47;;
23300;SDS011;11819;51.394;12.340;2023-05-01T03:30:24;15.10;;;9.30;;
23300;SDS011;11819;51.394;12.340;2023-05-01T03:32:52;14.00;;;9.77;;
23300;SDS011;11819;51.394;12.340;2023-05-01T03:35:25;14.70;;;9.73;;
23300;SDS011;11819;51.394;12.340;2023-05-01T03:37:50;14.93;;;10.13;;
23300;SDS011;11819;51.394;12.340;2023-05-01T03:40:39;13.67;;;9.50;;
23300;SDS011;11819;51.394;12.340;2023-05-01T03:43:42;16.53;;;9.70;;
23300;SDS011;11819;51.394;12.340;2023-05-01T03:46:16;13.33;;;9.33;;
23300;SDS011;11819;51.394;12.340;2023-05-01T03:48:44;14.37;;;9.97;;
23300;SDS011;11819;51.394;12.340;2023-05-01T03:51:09;16.50;;;9.63;;
23300;SDS011;11819;51.394;12.340;2023-05-01T03:53:37;15.67;;;10.13;;
23300;SDS011;11819;51.394;12.340;2023-05-01T03:56:05;16.77;;;10.73;;
23300;SDS011;11819;51.394;12.340;2023-05-01T03:58:30;12.87;;;8.93;;
23300;SDS011;11819;51.394;12.340;2023-05-01T04:00:57;15.93;;;10.00;;
23300;SDS011;11819;51.394;12.340;2023-05-01T04:03:25;15.27;;;10.83;;
23300;SDS011;11819;51.394;12.340;2023-05-01T04:05:52;17.97;;;10.73;;
23300;SDS011;11819;51.394;12.340;2023-05-01T04:08:17;17.10;;;11.40;;
23300;SDS011;11819;51.394;12.340;2023-05-01T04:10:45;16.73;;;10.57;;
23300;SDS011;11819;51.394;12.340;2023-05-01T04:13:11;16.37;;;10.80;;
23300;SDS011;11819;51.394;12.340;2023-05-01T04:15:37;15.90;;;11.47;;
23300;SDS011;11819;51.394;12.340;2023-05-01T04:18:03;15.63;;;11.83;;
23300;SDS011;11819;51.394;12.340;2023-05-01T04:20:29;16.17;;;11.63;;
23300;SDS011;11819;51.394;12.340;2023-05-01T04:22:55;16.70;;;13.23;;
23300;SDS011;11819;51.394;12.340;2023-05-01T04:25:20;21.07;;;14.87;;
23300;SDS011;11819;51.394;12.340;2023-05-01T04:27:48;25.33;;;14.23;;
23300;SDS011;11819;51.394;12.340;2023-05-01T04:30:14;26.90;;;17.20;;
23300;SDS011;11819;51.394;12.340;2023-05-01T04:32:40;22.13;;;16.60;;
23300;SDS011;11819;51.394;12.340;2023-05-01T04:35:06;25.53;;;18.43;;
23300;SDS011;11819;51.394;12.340;2023-05-01T04:37:32;23.00;;;16.30;;
23300;SDS011;11819;51.394;12.340;2023-05-01T04:39:59;24.10;;;16.17;;
23300;SDS011;11819;51.394;12.340;2023-05-01T04:42:29;25.43;;;17.67;;
23300;SDS011;11819;51.394;12.340;2023-05-01T04:44:58;25.33;;;18.27;;
23300;SDS011;11819;51.394;12.340;2023-05-01T04:47:31;25.27;;;18.13;;
23300;SDS011;11819;51.394;12.340;2023-05-01T04:49:57;29.67;;;22.00;;
23300;SDS011;11819;51.394;12.340;2023-05-01T04:52:23;26.37;;;19.73;;
23300;SDS011;11819;51.394;12.340;2023-05-01T04:54:53;26.33;;;19.83;;
23300;SDS011;11819;51.394;12.340;2023-05-01T04:57:21;30.20;;;21.63;;
23300;SDS011;11819;51.394;12.340;2023-05-01T04:59:48;29.10;;;21.95;;
23300;SDS011;11819;51.394;12.340;2023-05-01T05:02:14;30.52;;;22.45;;
23300;SDS011;11819;51.394;12.340;2023-05-01T05:04:40;32.43;;;24.17;;
23300;SDS011;11819;51.394;12.340;2023-05-01T05:07:06;33.92;;;25.25;;
23300;SDS011;11819;51.394;12.340;2023-05-01T05:09:54;32.53;;;24.52;;
23300;SDS011;11819;51.394;12.340;2023-05-01T05:12:20;34.88;;;25.88;;
23300;SDS011;11819;51.394;12.340;2023-05-01T05:14:46;39.00;;;24.95;;
23300;SDS011;11819;51.394;12.340;2023-05-01T05:17:14;35.92;;;25.48;;
23300;SDS011;11819;51.394;12.340;2023-05-01T05:19:41;31.33;;;24.20;;
23300;SDS011;11819;51.394;12.340;2023-05-01T05:22:07;34.25;;;26.08;;
23300;SDS011;11819;51.394;12.340;2023-05-01T05:24:51;36.17;;;27.02;;
23300;SDS011;11819;51.394;12.340;2023-05-01T05:27:18;36.85;;;28.48;;
23300;SDS011;11819;51.394;12.340;2023-05-01T05:29:44;37.30;;;28.63;;
23300;SDS011;11819;51.394;12.340;2023-05-01T05:32:10;38.03;;;27.35;;
23300;SDS011;11819;51.394;12.340;2023-05-01T05:34:36;40.05;;;28.40;;
23300;SDS011;11819;51.394;12.340;2023-05-01T05:37:03;40.83;;;29.45;;
23300;SDS011;11819;51.394;12.340;2023-05-01T05:39:31;36.70;;;27.65;;
23300;SDS011;11819;51.394;12.340;2023-05-01T05:41:57;36.92;;;28.48;;
23300;SDS011;11819;51.394;12.340;2023-05-01T05:44:23;36.78;;;28.00;;
23300;SDS011;11819;51.394;12.340;2023-05-01T05:46:49;35.78;;;28.33;;
23300;SDS011;11819;51.394;12.340;2023-05-01T05:49:24;40.15;;;29.20;;
23300;SDS011;11819;51.394;12.340;2023-05-01T05:51:50;37.28;;;28.33;;
23300;SDS011;11819;51.394;12.340;2023-05-01T05:54:15;35.05;;;27.80;;
23300;SDS011;11819;51.394;12.340;2023-05-01T05:56:41;36.58;;;26.80;;
23300;SDS011;11819;51.394;12.340;2023-05-01T05:59:07;32.58;;;26.50;;
23300;SDS011;11819;51.394;12.340;2023-05-01T06:01:34;34.92;;;25.67;;
23300;SDS011;11819;51.394;12.340;2023-05-01T06:04:01;32.35;;;25.33;;
23300;SDS011;11819;51.394;12.340;2023-05-01T06:06:28;32.72;;;24.83;;
23300;SDS011;11819;51.394;12.340;2023-05-01T06:08:55;32.97;;;24.27;;
23300;SDS011;11819;51.394;12.340;2023-05-01T06:11:22;34.00;;;23.08;;
23300;SDS011;11819;51.394;12.340;2023-05-01T06:13:47;30.27;;;23.67;;
23300;SDS011;11819;51.394;12.340;2023-05-01T06:18:49;29.42;;;22.88;;
23300;SDS011;11819;51.394;12.340;2023-05-01T06:21:15;34.28;;;24.25;;
23300;SDS011;11819;51.394;12.340;2023-05-01T06:23:42;32.28;;;21.90;;
23300;SDS011;11819;51.394;12.340;2023-05-01T06:26:20;31.48;;;21.45;;
23300;SDS011;11819;51.394;12.340;2023-05-01T06:28:47;29.73;;;21.60;;
23300;SDS011;11819;51.394;12.340;2023-05-01T06:31:13;26.85;;;20.52;;
23300;SDS011;11819;51.394;12.340;2023-05-01T06:33:46;28.30;;;21.20;;
23300;SDS011;11819;51.394;12.340;2023-05-01T06:36:26;26.58;;;19.70;;
23300;SDS011;11819;51.394;12.340;2023-05-01T06:38:53;29.55;;;20.45;;
23300;SDS011;11819;51.394;12.340;2023-05-01T06:41:19;27.13;;;19.35;;
23300;SDS011;11819;51.394;12.340;2023-05-01T06:43:46;24.63;;;20.55;;
23300;SDS011;11819;51.394;12.340;2023-05-01T06:46:14;26.35;;;20.35;;
23300;SDS011;11819;51.394;12.340;2023-05-01T06:48:40;26.05;;;20.17;;
23300;SDS011;11819;51.394;12.340;2023-05-01T06:51:11;28.00;;;19.08;;
23300;SDS011;11819;51.394;12.340;2023-05-01T06:53:54;23.10;;;18.95;;
23300;SDS011;11819;51.394;12.340;2023-05-01T06:56:22;24.25;;;18.55;;
23300;SDS011;11819;51.394;12.340;2023-05-01T06:58:48;26.58;;;19.67;;
23300;SDS011;11819;51.394;12.340;2023-05-01T07:01:13;25.00;;;19.00;;
23300;SDS011;11819;51.394;12.340;2023-05-01T07:03:43;24.25;;;19.08;;
23300;SDS011;11819;51.394;12.340;2023-05-01T07:06:10;26.50;;;19.35;;
23300;SDS011;11819;51.394;12.340;2023-05-01T07:08:35;27.80;;;18.67;;
23300;SDS011;11819;51.394;12.340;2023-05-01T07:11:03;24.35;;;19.30;;
23300;SDS011;11819;51.394;12.340;2023-05-01T07:13:30;27.85;;;19.38;;
23300;SDS011;11819;51.394;12.340;2023-05-01T07:15:57;25.52;;;19.70;;
23300;SDS011;11819;51.394;12.340;2023-05-01T07:18:22;27.77;;;20.13;;
23300;SDS011;11819;51.394;12.340;2023-05-01T07:20:48;24.98;;;19.90;;
23300;SDS011;11819;51.394;12.340;2023-05-01T07:23:15;28.20;;;20.65;;
23300;SDS011;11819;51.394;12.340;2023-05-01T07:25:47;25.38;;;19.80;;
23300;SDS011;11819;51.394;12.340;2023-05-01T07:28:14;28.23;;;19.52;;
23300;SDS011;11819;51.394;12.340;2023-05-01T07:30:43;28.50;;;19.95;;
23300;SDS011;11819;51.394;12.340;2023-05-01T07:33:11;26.45;;;19.52;;
23300;SDS011;11819;51.394;12.340;2023-05-01T07:35:37;24.00;;;19.45;;
23300;SDS011;11819;51.394;12.340;2023-05-01T07:38:03;28.00;;;20.17;;
23300;SDS011;11819;51.394;12.340;2023-05-01T07:40:28;25.80;;;20.27;;
23300;SDS011;11819;51.394;12.340;2023-05-01T07:42:56;28.13;;;21.02;;
23300;SDS011;11819;51.394;12.340;2023-05-01T07:45:22;26.95;;;20.13;;
23300;SDS011;11819;51.394;12.340;2023-05-01T07:47:47;24.40;;;19.40;;
23300;SDS011;11819;51.394;12.340;2023-05-01T07:50:14;28.23;;;20.50;;
23300;SDS011;11819;51.394;12.340;2023-05-01T07:52:41;24.63;;;18.95;;
23300;SDS011;11819;51.394;12.340;2023-05-01T07:55:06;24.90;;;18.95;;
23300;SDS011;11819;51.394;12.340;2023-05-01T07:57:34;25.65;;;18.42;;
23300;SDS011;11819;51.394;12.340;2023-05-01T08:00:02;25.83;;;18.88;;
23300;SDS011;11819;51.394;12.340;2023-05-01T08:02:39;23.85;;;18.83;;
23300;SDS011;11819;51.394;12.340;2023-05-01T08:05:05;22.75;;;17.92;;
23300;SDS011;11819;51.394;12.340;2023-05-01T08:07:31;23.15;;;17.80;;
23300;SDS011;11819;51.394;12.340;2023-05-01T08:09:57;21.50;;;17.45;;
23300;SDS011;11819;51.394;12.340;2023-05-01T08:12:24;24.10;;;19.20;;
23300;SDS011;11819;51.394;12.340;2023-05-01T08:14:53;24.52;;;18.98;;
23300;SDS011;11819;51.394;12.340;2023-05-01T08:17:19;26.92;;;20.20;;
23300;SDS011;11819;51.394;12.340;2023-05-01T08:19:45;23.17;;;17.45;;
23300;SDS011;11819;51.394;12.340;2023-05-01T08:22:10;24.92;;;18.65;;
23300;SDS011;11819;51.394;12.340;2023-05-01T08:24:37;22.63;;;17.88;;
23300;SDS011;11819;51.394;12.340;2023-05-01T08:27:03;26.83;;;18.10;;
23300;SDS011;11819;51.394;12.340;2023-05-01T08:29:28;21.92;;;17.50;;
23300;SDS011;11819;51.394;12.340;2023-05-01T08:31:55;23.45;;;18.25;;
23300;SDS011;11819;51.394;12.340;2023-05-01T08:34:22;26.67;;;18.33;;
23300;SDS011;11819;51.394;12.340;2023-05-01T08:36:49;23.02;;;18.05;;
23300;SDS011;11819;51.394;12.340;2023-05-01T08:39:16;22.55;;;17.80;;
23300;SDS011;11819;51.394;12.340;2023-05-01T08:41:45;26.67;;;17.85;;
23300;SDS011;11819;51.394;12.340;2023-05-01T08:44:12;22.58;;;18.08;;
23300;SDS011;11819;51.394;12.340;2023-05-01T08:46:47;23.92;;;17.83;;
23300;SDS011;11819;51.394;12.340;2023-05-01T08:49:22;22.08;;;17.98;;
23300;SDS011;11819;51.394;12.340;2023-05-01T08:51:49;22.50;;;16.70;;
23300;SDS011;11819;51.394;12.340;2023-05-01T08:54:19;23.60;;;17.05;;
23300;SDS011;11819;51.394;12.340;2023-05-01T08:56:52;22.70;;;16.38;;
23300;SDS011;11819;51.394;12.340;2023-05-01T08:59:18;20.77;;;16.35;;
23300;SDS011;11819;51.394;12.340;2023-05-01T09:01:47;23.50;;;17.00;;
23300;SDS011;11819;51.394;12.340;2023-05-01T09:04:15;21.08;;;16.52;;
23300;SDS011;11819;51.394;12.340;2023-05-01T09:06:42;20.27;;;15.98;;
23300;SDS011;11819;51.394;12.340;2023-05-01T09:09:09;19.77;;;15.90;;
23300;SDS011;11819;51.394;12.340;2023-05-01T09:11:35;21.08;;;15.23;;
23300;SDS011;11819;51.394;12.340;2023-05-01T09:14:01;21.80;;;16.15;;
23300;SDS011;11819;51.394;12.340;2023-05-01T09:16:29;31.00;;;17.05;;
23300;SDS011;11819;51.394;12.340;2023-05-01T09:18:56;21.83;;;17.75;;
23300;SDS011;11819;51.394;12.340;2023-05-01T09:21:25;22.70;;;16.48;;
23300;SDS011;11819;51.394;12.340;2023-05-01T09:23:51;20.75;;;15.93;;
23300;SDS011;11819;51.394;12.340;2023-05-01T09:26:18;33.33;;;17.55;;
23300;SDS011;11819;51.394;12.340;2023-05-01T09:28:46;21.15;;;14.57;;
23300;SDS011;11819;51.394;12.340;2023-05-01T09:31:19;23.95;;;14.13;;
23300;SDS011;11819;51.394;12.340;2023-05-01T09:33:52;21.33;;;14.57;;
23300;SDS011;11819;51.394;12.340;2023-05-01T09:36:22;20.77;;;14.60;;
23300;SDS011;11819;51.394;12.340;2023-05-01T09:38:49;22.13;;;16.23;;
23300;SDS011;11819;51.394;12.340;2023-05-01T09:41:15;23.30;;;15.07;;
23300;SDS011;11819;51.394;12.340;2023-05-01T09:43:48;20.95;;;15.05;;
23300;SDS011;11819;51.394;12.340;2023-05-01T09:49:05;20.83;;;14.82;;
23300;SDS011;11819;51.394;12.340;2023-05-01T09:51:31;22.13;;;14.85;;
23300;SDS011;11819;51.394;12.340;2023-05-01T09:53:59;19.60;;;14.10;;
23300;SDS011;11819;51.394;12.340;2023-05-01T09:56:28;16.23;;;13.10;;
23300;SDS011;11819;51.394;12.340;2023-05-01T10:02:27;15.43;;;12.25;;
23300;SDS011;11819;51.394;12.340;2023-05-01T10:04:56;16.50;;;12.50;;
23300;SDS011;11819;51.394;12.340;2023-05-01T10:07:24;15.02;;;11.68;;
23300;SDS011;11819;51.394;12.340;2023-05-01T10:09:50;18.85;;;11.95;;
23300;SDS011;11819;51.394;12.340;2023-05-01T10:12:24;15.65;;;12.13;;
23300;SDS011;11819;51.394;12.340;2023-05-01T10:14:51;16.83;;;12.00;;
23300;SDS011;11819;51.394;12.340;2023-05-01T10:17:18;18.65;;;13.00;;
23300;SDS011;11819;51.394;12.340;2023-05-01T10:19:44;17.45;;;12.38;;
23300;SDS011;11819;51.394;12.340;2023-05-01T10:22:11;15.93;;;12.50;;
23300;SDS011;11819;51.394;12.340;2023-05-01T10:24:37;17.35;;;12.25;;
23300;SDS011;11819;51.394;12.340;2023-05-01T10:27:05;22.95;;;14.68;;
23300;SDS011;11819;51.394;12.340;2023-05-01T10:29:33;19.20;;;13.20;;
23300;SDS011;11819;51.394;12.340;2023-05-01T10:32:01;16.90;;;11.90;;
23300;SDS011;11819;51.394;12.340;2023-05-01T10:34:29;17.05;;;12.57;;
23300;SDS011;11819;51.394;12.340;2023-05-01T10:36:58;15.02;;;11.77;;
23300;SDS011;11819;51.394;12.340;2023-05-01T10:39:33;15.50;;;12.00;;
23300;SDS011;11819;51.394;12.340;2023-05-01T10:42:01;14.65;;;11.98;;
23300;SDS011;11819;51.394;12.340;2023-05-01T10:44:28;14.98;;;10.65;;
23300;SDS011;11819;51.394;12.340;2023-05-01T10:46:56;15.27;;;11.40;;
23300;SDS011;11819;51.394;12.340;2023-05-01T10:49:22;14.73;;;11.38;;
23300;SDS011;11819;51.394;12.340;2023-05-01T10:54:28;15.85;;;10.90;;
23300;SDS011;11819;51.394;12.340;2023-05-01T10:57:01;12.95;;;10.73;;
23300;SDS011;11819;51.394;12.340;2023-05-01T11:00:12;16.92;;;11.32;;
23300;SDS011;11819;51.394;12.340;2023-05-01T11:02:28;14.20;;;9.98;;
23300;SDS011;11819;51.394;12.340;2023-05-01T11:04:54;13.18;;;9.07;;
23300;SDS011;11819;51.394;12.340;2023-05-01T11:07:21;13.68;;;8.73;;
23300;SDS011;11819;51.394;12.340;2023-05-01T11:09:53;12.00;;;8.07;;
23300;SDS011;11819;51.394;12.340;2023-05-01T11:15:10;11.52;;;8.30;;
23300;SDS011;11819;51.394;12.340;2023-05-01T11:20:06;13.10;;;9.50;;
23300;SDS011;11819;51.394;12.340;2023-05-01T11:22:59;11.05;;;7.90;;
23300;SDS011;11819;51.394;12.340;2023-05-01T11:25:26;11.93;;;7.90;;
23300;SDS011;11819;51.394;12.340;2023-05-01T11:27:55;12.18;;;7.78;;
23300;SDS011;11819;51.394;12.340;2023-05-01T11:30:23;12.80;;;8.50;;
23300;SDS011;11819;51.394;12.340;2023-05-01T11:32:49;10.93;;;7.85;;
23300;SDS011;11819;51.394;12.340;2023-05-01T11:35:19;10.77;;;7.97;;
23300;SDS011;11819;51.394;12.340;2023-05-01T11:37:46;12.55;;;7.68;;
23300;SDS011;11819;51.394;12.340;2023-05-01T11:40:22;13.50;;;8.55;;
23300;SDS011;11819;51.394;12.340;2023-05-01T11:43:03;10.52;;;7.85;;
23300;SDS011;11819;51.394;12.340;2023-05-01T11:45:32;9.30;;;7.25;;
23300;SDS011;11819;51.394;12.340;2023-05-01T11:47:58;11.45;;;7.90;;
23300;SDS011;11819;51.394;12.340;2023-05-01T11:50:37;12.00;;;7.90;;
23300;SDS011;11819;51.394;12.340;2023-05-01T11:53:03;9.98;;;7.05;;
23300;SDS011;11819;51.394;12.340;2023-05-01T11:55:42;10.50;;;7.75;;
23300;SDS011;11819;51.394;12.340;2023-05-01T11:58:09;10.55;;;7.43;;
23300;SDS011;11819;51.394;12.340;2023-05-01T12:00:41;10.07;;;6.72;;
23300;SDS011;11819;51.394;12.340;2023-05-01T12:03:10;11.05;;;7.00;;
23300;SDS011;11819;51.394;12.340;2023-05-01T12:05:37;9.30;;;6.47;;
23300;SDS011;11819;51.394;12.340;2023-05-01T12:08:08;9.98;;;6.57;;
23300;SDS011;11819;51.394;12.340;2023-05-01T12:10:34;11.60;;;7.43;;
23300;SDS011;11819;51.394;12.340;2023-05-01T12:13:01;9.88;;;7.53;;
23300;SDS011;11819;51.394;12.340;2023-05-01T12:15:29;11.23;;;7.15;;
23300;SDS011;11819;51.394;12.340;2023-05-01T12:17:56;12.00;;;7.40;;
23300;SDS011;11819;51.394;12.340;2023-05-01T12:20:35;9.52;;;6.65;;
23300;SDS011;11819;51.394;12.340;2023-05-01T12:23:03;9.27;;;7.55;;
23300;SDS011;11819;51.394;12.340;2023-05-01T12:25:30;11.05;;;7.55;;
23300;SDS011;11819;51.394;12.340;2023-05-01T12:28:02;10.48;;;8.40;;
23300;SDS011;11819;51.394;12.340;2023-05-01T12:30:32;10.60;;;8.27;;
23300;SDS011;11819;51.394;12.340;2023-05-01T12:32:59;11.80;;;7.97;;
23300;SDS011;11819;51.394;12.340;2023-05-01T12:35:31;10.65;;;7.88;;
23300;SDS011;11819;51.394;12.340;2023-05-01T12:37:57;9.80;;;8.10;;
23300;SDS011;11819;51.394;12.340;2023-05-01T12:40:23;11.60;;;8.70;;
23300;SDS011;11819;51.394;12.340;2023-05-01T12:42:53;13.45;;;8.57;;
23300;SDS011;11819;51.394;12.340;2023-05-01T12:45:21;12.27;;;9.63;;
23300;SDS011;11819;51.394;12.340;2023-05-01T12:47:47;14.45;;;8.43;;
23300;SDS011;11819;51.394;12.340;2023-05-01T12:50:13;10.50;;;8.63;;
23300;SDS011;11819;51.394;12.340;2023-05-01T12:52:39;10.93;;;8.30;;
23300;SDS011;11819;51.394;12.340;2023-05-01T12:55:05;10.60;;;8.63;;
23300;SDS011;11819;51.394;12.340;2023-05-01T12:57:33;12.65;;;8.93;;
23300;SDS011;11819;51.394;12.340;2023-05-01T13:00:01;9.52;;;7.70;;
23300;SDS011;11819;51.394;12.340;2023-05-01T13:02:32;11.85;;;8.20;;
23300;SDS011;11819;51.394;12.340;2023-05-01T13:05:08;10.00;;;8.60;;
23300;SDS011;11819;51.394;12.340;2023-05-01T13:07:36;11.18;;;8.98;;
23300;SDS011;11819;51.394;12.340;2023-05-01T13:10:04;9.57;;;8.32;;
23300;SDS011;11819;51.394;12.340;2023-05-01T13:12:31;11.57;;;8.95;;
23300;SDS011;11819;51.394;12.340;2023-05-01T13:14:57;11.32;;;8.57;;
23300;SDS011;11819;51.394;12.340;2023-05-01T13:17:27;10.50;;;8.48;;
23300;SDS011;11819;51.394;12.340;2023-05-01T13:19:54;10.38;;;8.25;;
23300;SDS011;11819;51.394;12.340;2023-05-01T13:22:54;10.98;;;8.93;;
23300;SDS011;11819;51.394;12.340;2023-05-01T13:25:17;10.07;;;7.90;;
23300;SDS011;11819;51.394;12.340;2023-05-01T13:27:50;9.25;;;7.97;;
23300;SDS011;11819;51.394;12.340;2023-05-01T13:30:18;11.35;;;8.82;;
23300;SDS011;11819;51.394;12.340;2023-05-01T13:32:47;11.10;;;9.75;;
23300;SDS011;11819;51.394;12.340;2023-05-01T13:35:20;16.02;;;9.85;;
23300;SDS011;11819;51.394;12.340;2023-05-01T13:37:48;17.13;;;10.02;;
23300;SDS011;11819;51.394;12.340;2023-05-01T13:40:14;14.20;;;9.88;;
23300;SDS011;11819;51.394;12.340;2023-05-01T13:42:42;12.20;;;10.18;;
23300;SDS011;11819;51.394;12.340;2023-05-01T13:45:08;12.52;;;10.05;;
23300;SDS011;11819;51.394;12.340;2023-05-01T13:47:34;14.43;;;10.68;;
23300;SDS011;11819;51.394;12.340;2023-05-01T13:50:03;13.20;;;10.30;;
23300;SDS011;11819;51.394;12.340;2023-05-01T13:52:29;13.75;;;10.50;;
23300;SDS011;11819;51.394;12.340;2023-05-01T13:54:55;13.25;;;10.32;;
23300;SDS011;11819;51.394;12.340;2023-05-01T13:57:25;11.63;;;10.40;;
23300;SDS011;11819;51.394;12.340;2023-05-01T13:59:52;13.73;;;11.05;;
23300;SDS011;11819;51.394;12.340;2023-05-01T14:04:48;11.93;;;9.90;;
23300;SDS011;11819;51.394;12.340;2023-05-01T14:07:18;13.23;;;10.10;;
23300;SDS011;11819;51.394;12.340;2023-05-01T14:09:52;11.68;;;9.57;;
23300;SDS011;11819;51.394;12.340;2023-05-01T14:12:27;12.13;;;10.18;;
23300;SDS011;11819;51.394;12.340;2023-05-01T14:14:54;14.60;;;10.23;;
23300;SDS011;11819;51.394;12.340;2023-05-01T14:17:30;11.32;;;9.55;;
23300;SDS011;11819;51.394;12.340;2023-05-01T14:19:57;11.25;;;10.00;;
23300;SDS011;11819;51.394;12.340;2023-05-01T14:22:24;13.00;;;9.85;;
23300;SDS011;11819;51.394;12.340;2023-05-01T14:25:00;13.10;;;9.93;;
23300;SDS011;11819;51.394;12.340;2023-05-01T14:27:30;11.40;;;9.70;;
23300;SDS011;11819;51.394;12.340;2023-05-01T14:29:56;11.05;;;9.43;;
23300;SDS011;11819;51.394;12.340;2023-05-01T14:32:23;12.35;;;10.10;;
23300;SDS011;11819;51.394;12.340;2023-05-01T14:34:50;12.50;;;9.90;;
23300;SDS011;11819;51.394;12.340;2023-05-01T14:37:17;10.90;;;9.80;;
23300;SDS011;11819;51.394;12.340;2023-05-01T14:39:42;13.45;;;10.85;;
23300;SDS011;11819;51.394;12.340;2023-05-01T14:42:08;12.45;;;10.02;;
23300;SDS011;11819;51.394;12.340;2023-05-01T14:44:34;11.13;;;9.93;;
23300;SDS011;11819;51.394;12.340;2023-05-01T14:47:04;13.15;;;10.90;;
23300;SDS011;11819;51.394;12.340;2023-05-01T14:49:34;12.60;;;10.75;;